Logo AVAMET
Benvolgut visitant, si us plau, ingressa Recuperar contrasenya

Llutxent Coop. del Camp

Dades diàries. Acumulats / Últims 30 dies disponibles

Data Temperatura (°C) Humitat rel. (%) Pressió rel. (hPa) Vent (km/h) Precipitació
Mínima Mitjana Màxima Amplitud
tèrmica
Mínima Mitjana Màxima Mínima Mitjana Màxima Predom. Mitjana Ràfega
màxima
Total
(mm)
Índex-n
Mínima Mitjana Màxima Mínima Mitjana Màxima n
0 a 1
P0 max
mm 5'
Dades mensuals acumulades fins l'últim dia disponible
01/2020 1,9 5,0 8,5 9,4 8,3 14,9 17,7 15,8 35 75 98 1.019 1.027 1.032   2,7 40,2 10,8
Dades anuals acumulades fins l'últim dia disponible
2020 1,9 5,0 8,5 9,4 8,3 14,9 17,7 15,8 35 75 98 1.019 1.027 1.032   2,7 40,2 10,8
Últims 30 dies disponibles
18-01-2020 6,9     11,2     15,7 8,8 51 68 82 1.019 1.026 1.031 OSO 3,9 32,2 0,0
17-01-2020 8,5     12,2     16,3 7,8 46 59 72 1.026 1.028 1.031 WNW 6,9 40,2 0,0
16-01-2020 8,2     11,9     17,7 9,5 52 68 78 1.024 1.026 1.027 WNW 2,9 14,5 0,0
15-01-2020 5,8     10,5     16,9 11,1 44 59 77 1.023 1.025 1.026 WNW 4,7 17,7 0,0
14-01-2020 5,3     9,5     15,9 10,6 35 59 74 1.019 1.021 1.022 OSO 4,0 16,1 0,0
13-01-2020 2,9     9,0     16,3 13,4 35 50 73 1.021 1.023 1.026 WNW 4,3 22,5 0,0
11-01-2020 3,6     10,8     13,5 9,9 61 72 88 1.028 1.029 1.031 S 1,7 11,3 0,2
10-01-2020 7,8     9,6     12,9 5,1 55 77 90 1.021 1.023 1.027 SSO 6,2 40,2 9,8 0,25 0,80
09-01-2020 3,8     8,8     14,7 10,9 61 86 98 1.023 1.026 1.029 WNW 1,9 16,1 0,0
08-01-2020 4,5     8,9     13,6 9,1 61 80 97 1.026 1.028 1.030 WNW 2,1 12,9 0,0
07-01-2020 2,9     8,3     15,4 12,5 50 86 98 1.027 1.029 1.031 WNW 0,8 12,9 0,2
06-01-2020 4,9     9,0     14,9 10,0 58 85 96 1.026 1.028 1.029 WNW 1,3 14,5 0,0
05-01-2020 3,9     9,5     17,2 13,3 36 75 93 1.025 1.028 1.030 WNW 1,6 9,7 0,0
04-01-2020 4,4     8,1     14,3 9,9 58 83 98 1.030 1.031 1.032 WNW 1,8 16,1 0,2
03-01-2020 3,7     8,6     16,8 13,1 51 86 97 1.027 1.029 1.032 WNW 1,6 16,1 0,2
02-01-2020 1,9     6,7     13,2 11,3 69 88 98 1.028 1.030 1.032 WNW 0,6 8,0 0,2
01-01-2020 6,5     7,3     8,3 1,8 88 91 95 1.030 1.031 1.031 ONO 0,0 3,2 0,0
31-12-2019 4,1     7,5     13,8 9,7 66 90 96 1.030 1.031 1.033 SO 1,5 14,5 0,2
30-12-2019 6,2     9,3     13,8 7,6 67 80 93 1.030 1.031 1.033 WNW 1,1 16,1 0,0
29-12-2019 5,9     8,8     13,9 8,0 WNW 1,6 14,5 0,0
28-12-2019 1,9     8,4     14,8 12,9 69 88 97 1.027 1.028 1.029 WNW 1,4 16,1 0,2
27-12-2019 7,0     11,9     20,1 13,1 45 73 90 1.025 1.027 1.028 WNW 0,6 8,0 0,0
26-12-2019 10,8     16,2     22,9 12,1 33 46 74 1.021 1.023 1.028 WNW 3,5 22,5 0,0
25-12-2019 8,2     14,3     20,3 12,1 49 63 79 1.021 1.022 1.024 WNW 1,8 11,3 0,0
24-12-2019 10,8     15,7     22,5 11,7 41 58 72 1.023 1.025 1.027 WNW 3,4 16,1 0,0
23-12-2019 10,9     15,1     19,7 8,8 32 60 75 1.018 1.023 1.026 WNW 7,6 41,8 0,0
22-12-2019 14,6     16,4     18,8 4,2 46 54 63 1.005 1.012 1.018 W 21,1 80,5 0,0
21-12-2019 17,4     20,0     23,5 6,1 47 62 75 999 1.002 1.005 W 24,0 82,1 0,0
20-12-2019 15,0     18,1     19,9 4,9 49 64 83 999 1.001 1.007 WSW 16,4 53,1 0,0
19-12-2019 7,0     11,7     17,6 10,6 59 70 80 1.007 1.013 1.017 WNW 2,6 27,4 0,0
Últims 13 mesos disponibles
12/2019 1,9 8,7 17,4 12,2 10,8 16,7 23,5 21,6 46 73 97 1.001 1.017 1.031 WNW 6,4 82,1 152,8
11/2019 3,6 9,2 18,2 13,3 13,4 17,5 25,0 21,4 51 64 81 998 1.009 1.017 WNW 8,0 61,2 11,8
10/2019 8,7 14,5 18,1 19,0 13,7 24,2 32,1 23,4 43 70 92 1.007 1.014 1.020 O 3,7 37,0 25,6
09/2019 12,4 18,2 21,3 22,4 20,5 27,1 33,4 21,0 45 76 92 1.008 1.015 1.022 WNW 5,4 77,2 163,6
08/2019 16,1 20,6 25,3 25,8 26,2 31,5 40,4 24,3 33 69 86 1.008 1.013 1.017 E 5,8 54,7 29,4
07/2019 18,8 20,8 24,9 26,3 27,2 32,0 37,7 18,9 39 64 78 1.004 1.011 1.018 E 6,8 59,5 0,8
06/2019 11,1 16,1 20,1 22,2 20,4 28,2 35,7 24,6 38 62 79 1.006 1.013 1.019 WNW 5,8 56,3 0,0
05/2019 7,2 13,0 18,4 18,0 17,4 23,4 30,3 23,1 51 66 83 1.003 1.013 1.022 WNW 5,8 57,9 6,0
04/2019 6,4 9,8 13,0 13,9 11,8 18,7 27,4 21,0 39 71 98 998 1.011 1.023 WNW 7,3 70,8 167,2
03/2019 3,5 7,9 14,1 13,4 11,8 19,0 26,1 22,6 30 58 94 1.008 1.021 1.028 WNW 5,2 56,3 48,8
02/2019 0,7 5,9 11,4 11,1 10,8 16,9 24,1 23,4 34 64 87 994 1.023 1.032 WNW 5,4 69,2 0,6
01/2019 -0,4 5,2 11,2 9,9 9,9 15,3 19,5 19,9 42 60 81 1.001 1.017 1.029 WNW 5,5 57,9 6,4
12/2018 3,1 7,7 12,6 12,0 12,5 17,7 24,6 21,5 44 69 95 1.007 1.024 1.029 WNW 3,6 43,5 33,6
Tots els anys disponibles
2019 -0,4 12,5 25,3 17,3 9,9 22,6 40,4 40,8 30 66 98 994 1.015 1.032 WNW 5,9 82,1 613,0
2018 0,5 12,6 23,6 17,1 5,7 22,2 37,1 36,6 WNW 5,7 88,5 692,0
2017 -1,4 12,6 23,3 17,4 6,5 22,8 38,3 39,7 WNW 5,5 101,4 415,2
Temperatura (°C)
Humitat relativa (%)
Velocitat del vent i ràfega màxima (km/h)
Direcció del vent (°)
Pressió (hPa)
Precipitació (mm)
Nota sobre les dades: s'avisa a l'usuari de la provisionalitat i no oficialitat d'aquestes dades
Logo AVAMET blanc
Web allotjada a Sollutia
Llicència de Creative CommonsLa web d'AVAMET i els seus continguts estan subjectes a una llicència de
Reconeixement - No Comercial - Compartir igual
Últimes estacions: Xixona - Els Ameradors (Soci), Agres - El Tossal (Soci), Xàbia - Bevenguts (MeteoXàbia), Llíria (Aj. Soci/Inforatge), Orihuela - Lo Capitán, Cox & Guardamar del Segura - horta (Meteorihuela), l'Alcúdia - Carriona & el Real de Gandia (Inforatge), Benicàssim - les Vil·les (Soci),  l'Alfàs del Pi - l'Albir (Soci), - - -